Terminal Aerodrome Forecast
Issued by NWS Raleigh/Durham, NC

Home | Current Version | Previous Version | Text Only | Print | Product List | Glossary On
Versions: 1 2 3 4 5 6 7 8 9 10 11 12 13 14 15 16 17 18 19 20 21 22 23 24 25 26 27 28 29 30 31 32 33 34 35 36 37 38 39 40 41 42 43 44 45 46 47 48
090
FTUS42 KRAH 301008 AAB
TAFGSO
TAF AMD
KGSO 301008Z 3010/0106 VRB03KT P6SM SCT070
      TEMPO 3010/3013 4SM BR OVC002
     FM301330 VRB03KT P6SM BKN014
     FM301600 16006KT P6SM SCT040=

USA.gov is the U.S. government's official web portal to all federal, state and local government web resources and services.